sensor_id;sensor_type;location;lat;lon;timestamp;P1;durP1;ratioP1;P2;durP2;ratioP2
11771;SDS011;12556;55.748;13.194;2023-09-12T00:01:03;78.93;;;35.43;;
11771;SDS011;12556;55.748;13.194;2023-09-12T00:03:31;70.50;;;36.10;;
11771;SDS011;12556;55.748;13.194;2023-09-12T00:06:00;95.50;;;36.17;;
11771;SDS011;12556;55.748;13.194;2023-09-12T00:08:28;100.67;;;39.03;;
11771;SDS011;12556;55.748;13.194;2023-09-12T00:10:59;68.17;;;36.40;;
11771;SDS011;12556;55.748;13.194;2023-09-12T00:13:27;74.73;;;37.67;;
11771;SDS011;12556;55.748;13.194;2023-09-12T00:15:54;67.23;;;35.93;;
11771;SDS011;12556;55.748;13.194;2023-09-12T00:18:20;78.80;;;38.83;;
11771;SDS011;12556;55.748;13.194;2023-09-12T00:20:47;120.40;;;40.97;;
11771;SDS011;12556;55.748;13.194;2023-09-12T00:23:15;69.90;;;36.27;;
11771;SDS011;12556;55.748;13.194;2023-09-12T00:25:42;130.00;;;42.27;;
11771;SDS011;12556;55.748;13.194;2023-09-12T00:28:09;107.00;;;39.73;;
11771;SDS011;12556;55.748;13.194;2023-09-12T00:30:36;102.30;;;39.83;;
11771;SDS011;12556;55.748;13.194;2023-09-12T00:33:03;92.87;;;40.73;;
11771;SDS011;12556;55.748;13.194;2023-09-12T00:35:30;83.30;;;38.27;;
11771;SDS011;12556;55.748;13.194;2023-09-12T00:37:57;67.03;;;36.03;;
11771;SDS011;12556;55.748;13.194;2023-09-12T00:40:25;62.80;;;34.53;;
11771;SDS011;12556;55.748;13.194;2023-09-12T00:42:52;62.87;;;33.57;;
11771;SDS011;12556;55.748;13.194;2023-09-12T00:45:19;65.97;;;34.37;;
11771;SDS011;12556;55.748;13.194;2023-09-12T00:47:46;60.90;;;32.00;;
11771;SDS011;12556;55.748;13.194;2023-09-12T00:50:14;56.73;;;32.97;;
11771;SDS011;12556;55.748;13.194;2023-09-12T00:52:42;48.23;;;30.10;;
11771;SDS011;12556;55.748;13.194;2023-09-12T00:55:09;62.13;;;32.90;;
11771;SDS011;12556;55.748;13.194;2023-09-12T00:57:38;48.27;;;31.40;;
11771;SDS011;12556;55.748;13.194;2023-09-12T01:00:06;54.93;;;33.30;;
11771;SDS011;12556;55.748;13.194;2023-09-12T01:02:37;53.57;;;33.47;;
11771;SDS011;12556;55.748;13.194;2023-09-12T01:05:05;92.53;;;36.20;;
11771;SDS011;12556;55.748;13.194;2023-09-12T01:07:32;48.70;;;32.33;;
11771;SDS011;12556;55.748;13.194;2023-09-12T01:10:00;54.30;;;33.90;;
11771;SDS011;12556;55.748;13.194;2023-09-12T01:12:27;58.70;;;34.03;;
11771;SDS011;12556;55.748;13.194;2023-09-12T01:14:57;50.70;;;32.90;;
11771;SDS011;12556;55.748;13.194;2023-09-12T01:17:24;42.30;;;29.67;;
11771;SDS011;12556;55.748;13.194;2023-09-12T01:19:51;45.30;;;31.47;;
11771;SDS011;12556;55.748;13.194;2023-09-12T01:22:26;40.13;;;29.80;;
11771;SDS011;12556;55.748;13.194;2023-09-12T01:25:08;43.30;;;29.53;;
11771;SDS011;12556;55.748;13.194;2023-09-12T01:27:44;43.07;;;28.47;;
11771;SDS011;12556;55.748;13.194;2023-09-12T01:30:12;43.70;;;29.27;;
11771;SDS011;12556;55.748;13.194;2023-09-12T01:32:44;42.93;;;28.87;;
11771;SDS011;12556;55.748;13.194;2023-09-12T01:35:11;41.07;;;28.13;;
11771;SDS011;12556;55.748;13.194;2023-09-12T01:37:38;41.07;;;28.53;;
11771;SDS011;12556;55.748;13.194;2023-09-12T01:40:05;35.77;;;26.67;;
11771;SDS011;12556;55.748;13.194;2023-09-12T01:42:35;36.47;;;26.00;;
11771;SDS011;12556;55.748;13.194;2023-09-12T01:45:07;32.43;;;24.33;;
11771;SDS011;12556;55.748;13.194;2023-09-12T01:47:36;30.10;;;24.07;;
11771;SDS011;12556;55.748;13.194;2023-09-12T01:50:05;35.10;;;26.93;;
11771;SDS011;12556;55.748;13.194;2023-09-12T01:52:38;36.33;;;25.47;;
11771;SDS011;12556;55.748;13.194;2023-09-12T01:55:05;31.60;;;24.23;;
11771;SDS011;12556;55.748;13.194;2023-09-12T01:57:35;32.00;;;25.37;;
11771;SDS011;12556;55.748;13.194;2023-09-12T02:00:03;34.27;;;26.17;;
11771;SDS011;12556;55.748;13.194;2023-09-12T02:02:32;38.33;;;26.07;;
11771;SDS011;12556;55.748;13.194;2023-09-12T02:05:02;35.13;;;26.73;;
11771;SDS011;12556;55.748;13.194;2023-09-12T02:07:37;41.33;;;29.47;;
11771;SDS011;12556;55.748;13.194;2023-09-12T02:10:06;39.67;;;28.63;;
11771;SDS011;12556;55.748;13.194;2023-09-12T02:12:34;47.67;;;30.77;;
11771;SDS011;12556;55.748;13.194;2023-09-12T02:15:02;45.47;;;28.33;;
11771;SDS011;12556;55.748;13.194;2023-09-12T02:17:29;40.77;;;27.37;;
11771;SDS011;12556;55.748;13.194;2023-09-12T02:19:57;46.23;;;29.43;;
11771;SDS011;12556;55.748;13.194;2023-09-12T02:22:24;45.97;;;30.03;;
11771;SDS011;12556;55.748;13.194;2023-09-12T02:24:51;42.83;;;28.67;;
11771;SDS011;12556;55.748;13.194;2023-09-12T02:27:18;45.30;;;29.07;;
11771;SDS011;12556;55.748;13.194;2023-09-12T02:29:44;41.67;;;28.50;;
11771;SDS011;12556;55.748;13.194;2023-09-12T02:32:11;38.27;;;27.27;;
11771;SDS011;12556;55.748;13.194;2023-09-12T02:34:38;44.20;;;29.67;;
11771;SDS011;12556;55.748;13.194;2023-09-12T02:37:07;37.70;;;28.33;;
11771;SDS011;12556;55.748;13.194;2023-09-12T02:39:33;47.40;;;30.20;;
11771;SDS011;12556;55.748;13.194;2023-09-12T02:42:00;50.17;;;31.97;;
11771;SDS011;12556;55.748;13.194;2023-09-12T02:44:27;35.83;;;28.93;;
11771;SDS011;12556;55.748;13.194;2023-09-12T02:46:54;38.83;;;28.77;;
11771;SDS011;12556;55.748;13.194;2023-09-12T02:49:21;42.30;;;31.03;;
11771;SDS011;12556;55.748;13.194;2023-09-12T02:51:48;43.57;;;31.33;;
11771;SDS011;12556;55.748;13.194;2023-09-12T02:54:16;44.13;;;33.23;;
11771;SDS011;12556;55.748;13.194;2023-09-12T02:56:43;43.57;;;33.43;;
11771;SDS011;12556;55.748;13.194;2023-09-12T02:59:10;39.80;;;33.00;;
11771;SDS011;12556;55.748;13.194;2023-09-12T03:01:36;45.83;;;35.80;;
11771;SDS011;12556;55.748;13.194;2023-09-12T03:04:03;50.17;;;40.03;;
11771;SDS011;12556;55.748;13.194;2023-09-12T03:06:30;53.53;;;39.77;;
11771;SDS011;12556;55.748;13.194;2023-09-12T03:08:57;51.50;;;41.17;;
11771;SDS011;12556;55.748;13.194;2023-09-12T03:11:26;54.50;;;40.83;;
11771;SDS011;12556;55.748;13.194;2023-09-12T03:13:54;50.53;;;39.83;;
11771;SDS011;12556;55.748;13.194;2023-09-12T03:16:22;49.27;;;39.63;;
11771;SDS011;12556;55.748;13.194;2023-09-12T03:18:49;51.23;;;39.27;;
11771;SDS011;12556;55.748;13.194;2023-09-12T03:21:16;50.93;;;40.70;;
11771;SDS011;12556;55.748;13.194;2023-09-12T03:23:42;44.93;;;38.07;;
11771;SDS011;12556;55.748;13.194;2023-09-12T03:26:09;49.77;;;40.07;;
11771;SDS011;12556;55.748;13.194;2023-09-12T03:28:38;47.77;;;39.40;;
11771;SDS011;12556;55.748;13.194;2023-09-12T03:31:06;45.37;;;37.50;;
11771;SDS011;12556;55.748;13.194;2023-09-12T03:33:36;50.03;;;39.03;;
11771;SDS011;12556;55.748;13.194;2023-09-12T03:36:05;48.63;;;39.80;;
11771;SDS011;12556;55.748;13.194;2023-09-12T03:38:32;45.00;;;37.63;;
11771;SDS011;12556;55.748;13.194;2023-09-12T03:40:59;46.33;;;36.80;;
11771;SDS011;12556;55.748;13.194;2023-09-12T03:43:26;42.37;;;36.23;;
11771;SDS011;12556;55.748;13.194;2023-09-12T03:45:54;47.70;;;37.47;;
11771;SDS011;12556;55.748;13.194;2023-09-12T03:48:21;45.77;;;37.63;;
11771;SDS011;12556;55.748;13.194;2023-09-12T03:50:48;42.83;;;35.63;;
11771;SDS011;12556;55.748;13.194;2023-09-12T03:53:15;36.23;;;32.30;;
11771;SDS011;12556;55.748;13.194;2023-09-12T03:55:42;44.00;;;33.47;;
11771;SDS011;12556;55.748;13.194;2023-09-12T03:58:09;38.83;;;31.67;;
11771;SDS011;12556;55.748;13.194;2023-09-12T04:00:36;36.67;;;31.13;;
11771;SDS011;12556;55.748;13.194;2023-09-12T04:03:04;39.20;;;33.23;;
11771;SDS011;12556;55.748;13.194;2023-09-12T04:05:31;35.67;;;30.47;;
11771;SDS011;12556;55.748;13.194;2023-09-12T04:07:58;37.57;;;32.17;;
11771;SDS011;12556;55.748;13.194;2023-09-12T04:10:25;37.00;;;32.93;;
11771;SDS011;12556;55.748;13.194;2023-09-12T04:12:51;39.60;;;34.20;;
11771;SDS011;12556;55.748;13.194;2023-09-12T04:15:18;33.70;;;30.10;;
11771;SDS011;12556;55.748;13.194;2023-09-12T04:17:45;37.87;;;29.67;;
11771;SDS011;12556;55.748;13.194;2023-09-12T04:20:13;39.33;;;33.10;;
11771;SDS011;12556;55.748;13.194;2023-09-12T04:22:41;41.23;;;32.20;;
11771;SDS011;12556;55.748;13.194;2023-09-12T04:25:08;39.20;;;33.00;;
11771;SDS011;12556;55.748;13.194;2023-09-12T04:27:35;45.00;;;36.70;;
11771;SDS011;12556;55.748;13.194;2023-09-12T04:30:03;43.27;;;35.53;;
11771;SDS011;12556;55.748;13.194;2023-09-12T04:32:30;46.30;;;34.40;;
11771;SDS011;12556;55.748;13.194;2023-09-12T04:34:57;47.13;;;37.20;;
11771;SDS011;12556;55.748;13.194;2023-09-12T04:37:25;46.47;;;36.77;;
11771;SDS011;12556;55.748;13.194;2023-09-12T04:39:52;44.53;;;35.73;;
11771;SDS011;12556;55.748;13.194;2023-09-12T04:42:19;44.80;;;36.57;;
11771;SDS011;12556;55.748;13.194;2023-09-12T04:44:46;41.10;;;36.10;;
11771;SDS011;12556;55.748;13.194;2023-09-12T04:47:13;50.70;;;37.27;;
11771;SDS011;12556;55.748;13.194;2023-09-12T04:49:41;37.93;;;33.83;;
11771;SDS011;12556;55.748;13.194;2023-09-12T04:52:09;43.47;;;34.67;;
11771;SDS011;12556;55.748;13.194;2023-09-12T04:54:37;40.10;;;33.33;;
11771;SDS011;12556;55.748;13.194;2023-09-12T04:57:04;39.03;;;33.73;;
11771;SDS011;12556;55.748;13.194;2023-09-12T04:59:32;41.47;;;32.20;;
11771;SDS011;12556;55.748;13.194;2023-09-12T05:01:59;37.90;;;32.40;;
11771;SDS011;12556;55.748;13.194;2023-09-12T05:04:26;38.13;;;31.43;;
11771;SDS011;12556;55.748;13.194;2023-09-12T05:06:52;32.07;;;28.63;;
11771;SDS011;12556;55.748;13.194;2023-09-12T05:09:19;32.10;;;28.03;;
11771;SDS011;12556;55.748;13.194;2023-09-12T05:11:47;36.90;;;29.97;;
11771;SDS011;12556;55.748;13.194;2023-09-12T05:14:15;37.53;;;30.20;;
11771;SDS011;12556;55.748;13.194;2023-09-12T05:16:41;40.80;;;31.40;;
11771;SDS011;12556;55.748;13.194;2023-09-12T05:19:08;37.23;;;30.57;;
11771;SDS011;12556;55.748;13.194;2023-09-12T05:21:36;37.00;;;32.13;;
11771;SDS011;12556;55.748;13.194;2023-09-12T05:24:03;34.27;;;30.53;;
11771;SDS011;12556;55.748;13.194;2023-09-12T05:26:30;37.92;;;30.27;;
11771;SDS011;12556;55.748;13.194;2023-09-12T05:28:59;35.90;;;30.93;;
11771;SDS011;12556;55.748;13.194;2023-09-12T05:31:25;36.93;;;31.13;;
11771;SDS011;12556;55.748;13.194;2023-09-12T05:33:53;37.17;;;31.58;;
11771;SDS011;12556;55.748;13.194;2023-09-12T05:36:20;37.97;;;30.73;;
11771;SDS011;12556;55.748;13.194;2023-09-12T05:38:47;44.47;;;33.72;;
11771;SDS011;12556;55.748;13.194;2023-09-12T05:41:13;36.83;;;31.83;;
11771;SDS011;12556;55.748;13.194;2023-09-12T05:43:40;44.53;;;37.23;;
11771;SDS011;12556;55.748;13.194;2023-09-12T05:46:08;50.57;;;39.97;;
11771;SDS011;12556;55.748;13.194;2023-09-12T05:48:35;43.83;;;36.53;;
11771;SDS011;12556;55.748;13.194;2023-09-12T05:51:02;48.77;;;39.10;;
11771;SDS011;12556;55.748;13.194;2023-09-12T05:53:29;42.70;;;35.33;;
11771;SDS011;12556;55.748;13.194;2023-09-12T05:55:56;49.53;;;37.57;;
11771;SDS011;12556;55.748;13.194;2023-09-12T05:58:23;55.43;;;39.80;;
11771;SDS011;12556;55.748;13.194;2023-09-12T06:00:49;51.17;;;37.97;;
11771;SDS011;12556;55.748;13.194;2023-09-12T06:03:18;45.27;;;35.77;;
11771;SDS011;12556;55.748;13.194;2023-09-12T06:05:44;47.40;;;38.47;;
11771;SDS011;12556;55.748;13.194;2023-09-12T06:08:11;49.73;;;36.33;;
11771;SDS011;12556;55.748;13.194;2023-09-12T06:10:38;45.53;;;34.17;;
11771;SDS011;12556;55.748;13.194;2023-09-12T06:13:05;42.58;;;33.47;;
11771;SDS011;12556;55.748;13.194;2023-09-12T06:15:32;42.70;;;34.03;;
11771;SDS011;12556;55.748;13.194;2023-09-12T06:17:58;47.63;;;36.72;;
11771;SDS011;12556;55.748;13.194;2023-09-12T06:20:27;49.58;;;35.33;;
11771;SDS011;12556;55.748;13.194;2023-09-12T06:22:53;49.65;;;38.17;;
11771;SDS011;12556;55.748;13.194;2023-09-12T06:25:20;46.83;;;35.58;;
11771;SDS011;12556;55.748;13.194;2023-09-12T06:27:47;54.72;;;37.75;;
11771;SDS011;12556;55.748;13.194;2023-09-12T06:30:14;53.70;;;37.40;;
11771;SDS011;12556;55.748;13.194;2023-09-12T06:32:41;57.57;;;36.93;;
11771;SDS011;12556;55.748;13.194;2023-09-12T06:35:08;61.42;;;37.60;;
11771;SDS011;12556;55.748;13.194;2023-09-12T06:37:37;57.80;;;36.47;;
11771;SDS011;12556;55.748;13.194;2023-09-12T06:40:05;66.47;;;37.90;;
11771;SDS011;12556;55.748;13.194;2023-09-12T06:42:32;63.27;;;36.23;;
11771;SDS011;12556;55.748;13.194;2023-09-12T06:44:59;64.47;;;38.50;;
11771;SDS011;12556;55.748;13.194;2023-09-12T06:47:26;92.07;;;42.63;;
11771;SDS011;12556;55.748;13.194;2023-09-12T06:49:53;89.03;;;43.30;;
11771;SDS011;12556;55.748;13.194;2023-09-12T06:52:20;87.27;;;42.33;;
11771;SDS011;12556;55.748;13.194;2023-09-12T06:54:48;83.83;;;42.37;;
11771;SDS011;12556;55.748;13.194;2023-09-12T06:57:15;100.67;;;43.93;;
11771;SDS011;12556;55.748;13.194;2023-09-12T06:59:42;75.20;;;40.10;;
11771;SDS011;12556;55.748;13.194;2023-09-12T07:02:08;70.00;;;38.08;;
11771;SDS011;12556;55.748;13.194;2023-09-12T07:04:37;67.03;;;37.33;;
11771;SDS011;12556;55.748;13.194;2023-09-12T07:07:04;64.63;;;36.30;;
11771;SDS011;12556;55.748;13.194;2023-09-12T07:09:31;58.47;;;35.63;;
11771;SDS011;12556;55.748;13.194;2023-09-12T07:12:00;61.60;;;37.42;;
11771;SDS011;12556;55.748;13.194;2023-09-12T07:14:26;57.78;;;34.95;;
11771;SDS011;12556;55.748;13.194;2023-09-12T07:16:54;62.50;;;36.35;;
11771;SDS011;12556;55.748;13.194;2023-09-12T07:19:21;62.83;;;36.33;;
11771;SDS011;12556;55.748;13.194;2023-09-12T07:21:49;62.25;;;34.65;;
11771;SDS011;12556;55.748;13.194;2023-09-12T07:24:16;55.90;;;34.70;;
11771;SDS011;12556;55.748;13.194;2023-09-12T07:26:42;54.40;;;33.53;;
11771;SDS011;12556;55.748;13.194;2023-09-12T07:29:12;65.38;;;35.35;;
11771;SDS011;12556;55.748;13.194;2023-09-12T07:31:39;60.28;;;35.45;;
11771;SDS011;12556;55.748;13.194;2023-09-12T07:34:06;64.38;;;35.67;;
11771;SDS011;12556;55.748;13.194;2023-09-12T07:36:34;59.92;;;34.85;;
11771;SDS011;12556;55.748;13.194;2023-09-12T07:39:01;61.92;;;34.70;;
11771;SDS011;12556;55.748;13.194;2023-09-12T07:41:29;60.15;;;36.20;;
11771;SDS011;12556;55.748;13.194;2023-09-12T07:43:56;57.17;;;35.60;;
11771;SDS011;12556;55.748;13.194;2023-09-12T07:46:24;54.03;;;34.30;;
11771;SDS011;12556;55.748;13.194;2023-09-12T07:48:52;60.58;;;36.53;;
11771;SDS011;12556;55.748;13.194;2023-09-12T07:51:19;54.97;;;33.83;;
11771;SDS011;12556;55.748;13.194;2023-09-12T07:53:47;59.15;;;35.65;;
11771;SDS011;12556;55.748;13.194;2023-09-12T07:56:14;59.70;;;36.45;;
11771;SDS011;12556;55.748;13.194;2023-09-12T07:58:41;61.85;;;36.72;;
11771;SDS011;12556;55.748;13.194;2023-09-12T08:01:08;57.60;;;35.33;;
11771;SDS011;12556;55.748;13.194;2023-09-12T08:03:38;59.78;;;35.15;;
11771;SDS011;12556;55.748;13.194;2023-09-12T08:06:05;59.92;;;36.78;;
11771;SDS011;12556;55.748;13.194;2023-09-12T08:08:32;55.88;;;35.70;;
11771;SDS011;12556;55.748;13.194;2023-09-12T08:10:59;52.50;;;34.60;;
11771;SDS011;12556;55.748;13.194;2023-09-12T08:13:27;61.58;;;38.55;;
11771;SDS011;12556;55.748;13.194;2023-09-12T08:15:55;58.78;;;36.92;;
11771;SDS011;12556;55.748;13.194;2023-09-12T08:18:25;61.33;;;37.15;;
11771;SDS011;12556;55.748;13.194;2023-09-12T08:20:54;62.35;;;38.63;;
11771;SDS011;12556;55.748;13.194;2023-09-12T08:23:21;64.90;;;37.85;;
11771;SDS011;12556;55.748;13.194;2023-09-12T08:25:48;63.90;;;40.08;;
11771;SDS011;12556;55.748;13.194;2023-09-12T08:28:15;68.18;;;40.05;;
11771;SDS011;12556;55.748;13.194;2023-09-12T08:30:43;64.00;;;38.53;;
11771;SDS011;12556;55.748;13.194;2023-09-12T08:33:10;65.45;;;38.28;;
11771;SDS011;12556;55.748;13.194;2023-09-12T08:35:37;61.53;;;39.00;;
11771;SDS011;12556;55.748;13.194;2023-09-12T08:38:05;62.90;;;37.90;;
11771;SDS011;12556;55.748;13.194;2023-09-12T08:40:32;59.00;;;36.88;;
11771;SDS011;12556;55.748;13.194;2023-09-12T08:43:00;59.53;;;39.10;;
11771;SDS011;12556;55.748;13.194;2023-09-12T08:45:28;57.10;;;38.80;;
11771;SDS011;12556;55.748;13.194;2023-09-12T08:47:56;64.00;;;39.92;;
11771;SDS011;12556;55.748;13.194;2023-09-12T08:50:25;58.78;;;38.70;;
11771;SDS011;12556;55.748;13.194;2023-09-12T08:52:56;59.47;;;38.33;;
11771;SDS011;12556;55.748;13.194;2023-09-12T08:55:24;53.88;;;35.88;;
11771;SDS011;12556;55.748;13.194;2023-09-12T08:57:51;58.72;;;36.33;;
11771;SDS011;12556;55.748;13.194;2023-09-12T09:00:21;56.17;;;38.22;;
11771;SDS011;12556;55.748;13.194;2023-09-12T09:02:50;54.10;;;37.25;;
11771;SDS011;12556;55.748;13.194;2023-09-12T09:05:17;49.10;;;35.17;;
11771;SDS011;12556;55.748;13.194;2023-09-12T09:07:47;46.53;;;34.85;;
11771;SDS011;12556;55.748;13.194;2023-09-12T09:10:15;53.08;;;34.25;;
11771;SDS011;12556;55.748;13.194;2023-09-12T09:12:44;47.35;;;32.38;;
11771;SDS011;12556;55.748;13.194;2023-09-12T09:15:21;40.88;;;30.17;;
11771;SDS011;12556;55.748;13.194;2023-09-12T09:17:52;38.83;;;28.52;;
11771;SDS011;12556;55.748;13.194;2023-09-12T09:20:25;40.88;;;29.95;;
11771;SDS011;12556;55.748;13.194;2023-09-12T09:22:59;44.67;;;31.52;;
11771;SDS011;12556;55.748;13.194;2023-09-12T09:25:30;40.90;;;31.17;;
11771;SDS011;12556;55.748;13.194;2023-09-12T09:27:58;39.60;;;29.05;;
11771;SDS011;12556;55.748;13.194;2023-09-12T09:30:39;38.53;;;26.35;;
11771;SDS011;12556;55.748;13.194;2023-09-12T09:33:07;35.90;;;26.88;;
11771;SDS011;12556;55.748;13.194;2023-09-12T09:35:34;32.78;;;25.85;;
11771;SDS011;12556;55.748;13.194;2023-09-12T09:38:02;30.45;;;21.60;;
11771;SDS011;12556;55.748;13.194;2023-09-12T09:40:29;26.05;;;20.50;;
11771;SDS011;12556;55.748;13.194;2023-09-12T09:43:00;29.38;;;22.10;;
11771;SDS011;12556;55.748;13.194;2023-09-12T09:45:27;23.95;;;21.25;;
11771;SDS011;12556;55.748;13.194;2023-09-12T09:47:56;24.23;;;19.67;;
11771;SDS011;12556;55.748;13.194;2023-09-12T09:50:24;26.17;;;22.23;;
11771;SDS011;12556;55.748;13.194;2023-09-12T09:52:52;24.83;;;20.73;;
11771;SDS011;12556;55.748;13.194;2023-09-12T09:55:21;25.58;;;20.40;;
11771;SDS011;12556;55.748;13.194;2023-09-12T09:57:48;21.90;;;19.45;;
11771;SDS011;12556;55.748;13.194;2023-09-12T10:00:18;26.08;;;20.73;;
11771;SDS011;12556;55.748;13.194;2023-09-12T10:02:46;21.15;;;18.70;;
11771;SDS011;12556;55.748;13.194;2023-09-12T10:05:16;21.73;;;18.60;;
11771;SDS011;12556;55.748;13.194;2023-09-12T10:07:44;21.90;;;18.95;;
11771;SDS011;12556;55.748;13.194;2023-09-12T10:10:14;19.45;;;17.33;;
11771;SDS011;12556;55.748;13.194;2023-09-12T10:12:43;22.40;;;18.63;;
11771;SDS011;12556;55.748;13.194;2023-09-12T10:15:16;21.33;;;17.98;;
11771;SDS011;12556;55.748;13.194;2023-09-12T10:17:50;19.35;;;16.35;;
11771;SDS011;12556;55.748;13.194;2023-09-12T10:20:21;17.83;;;15.93;;
11771;SDS011;12556;55.748;13.194;2023-09-12T10:22:55;19.33;;;17.27;;
11771;SDS011;12556;55.748;13.194;2023-09-12T10:25:28;22.27;;;17.05;;
11771;SDS011;12556;55.748;13.194;2023-09-12T10:27:56;20.63;;;17.65;;
11771;SDS011;12556;55.748;13.194;2023-09-12T10:30:24;20.45;;;17.92;;
11771;SDS011;12556;55.748;13.194;2023-09-12T10:32:52;21.73;;;19.42;;
11771;SDS011;12556;55.748;13.194;2023-09-12T10:35:20;19.65;;;17.60;;
11771;SDS011;12556;55.748;13.194;2023-09-12T10:37:47;17.17;;;15.40;;
11771;SDS011;12556;55.748;13.194;2023-09-12T10:40:17;20.83;;;17.48;;
11771;SDS011;12556;55.748;13.194;2023-09-12T10:42:45;20.33;;;18.23;;
11771;SDS011;12556;55.748;13.194;2023-09-12T10:45:13;19.63;;;17.42;;
11771;SDS011;12556;55.748;13.194;2023-09-12T10:47:41;18.30;;;16.17;;
11771;SDS011;12556;55.748;13.194;2023-09-12T10:50:08;22.40;;;19.17;;
11771;SDS011;12556;55.748;13.194;2023-09-12T10:52:36;30.77;;;24.88;;
11771;SDS011;12556;55.748;13.194;2023-09-12T10:55:05;28.60;;;24.77;;
11771;SDS011;12556;55.748;13.194;2023-09-12T10:57:33;30.35;;;24.58;;
11771;SDS011;12556;55.748;13.194;2023-09-12T11:02:46;32.05;;;24.85;;
11771;SDS011;12556;55.748;13.194;2023-09-12T11:08:04;26.83;;;23.23;;
11771;SDS011;12556;55.748;13.194;2023-09-12T11:10:31;28.88;;;23.45;;
11771;SDS011;12556;55.748;13.194;2023-09-12T11:12:58;28.23;;;23.55;;
11771;SDS011;12556;55.748;13.194;2023-09-12T11:15:25;28.58;;;23.08;;
11771;SDS011;12556;55.748;13.194;2023-09-12T11:18:01;27.15;;;21.42;;
11771;SDS011;12556;55.748;13.194;2023-09-12T11:20:51;31.38;;;23.50;;
11771;SDS011;12556;55.748;13.194;2023-09-12T11:23:24;25.25;;;22.33;;
11771;SDS011;12556;55.748;13.194;2023-09-12T11:26:02;27.02;;;20.85;;
11771;SDS011;12556;55.748;13.194;2023-09-12T11:28:31;27.30;;;22.75;;
11771;SDS011;12556;55.748;13.194;2023-09-12T11:30:57;24.90;;;22.10;;
11771;SDS011;12556;55.748;13.194;2023-09-12T11:33:26;28.17;;;22.20;;
11771;SDS011;12556;55.748;13.194;2023-09-12T11:35:53;29.85;;;24.60;;
11771;SDS011;12556;55.748;13.194;2023-09-12T11:38:26;31.95;;;24.92;;
11771;SDS011;12556;55.748;13.194;2023-09-12T11:40:54;30.90;;;23.80;;
11771;SDS011;12556;55.748;13.194;2023-09-12T11:43:22;28.75;;;21.90;;
11771;SDS011;12556;55.748;13.194;2023-09-12T11:45:50;30.08;;;24.42;;
11771;SDS011;12556;55.748;13.194;2023-09-12T11:48:18;24.33;;;21.52;;
11771;SDS011;12556;55.748;13.194;2023-09-12T11:50:51;26.80;;;22.95;;
11771;SDS011;12556;55.748;13.194;2023-09-12T11:53:19;26.02;;;21.98;;
11771;SDS011;12556;55.748;13.194;2023-09-12T11:55:51;25.27;;;21.35;;
11771;SDS011;12556;55.748;13.194;2023-09-12T11:58:20;25.60;;;21.55;;
11771;SDS011;12556;55.748;13.194;2023-09-12T12:00:47;22.58;;;19.67;;
11771;SDS011;12556;55.748;13.194;2023-09-12T12:03:16;26.88;;;21.50;;
11771;SDS011;12556;55.748;13.194;2023-09-12T12:05:44;25.17;;;20.70;;
11771;SDS011;12556;55.748;13.194;2023-09-12T12:08:12;25.27;;;21.00;;
11771;SDS011;12556;55.748;13.194;2023-09-12T12:10:40;24.73;;;21.33;;
11771;SDS011;12556;55.748;13.194;2023-09-12T12:13:10;22.63;;;20.23;;
11771;SDS011;12556;55.748;13.194;2023-09-12T12:15:37;24.88;;;20.63;;
11771;SDS011;12556;55.748;13.194;2023-09-12T12:18:04;27.50;;;22.30;;
11771;SDS011;12556;55.748;13.194;2023-09-12T12:20:31;24.30;;;21.23;;
11771;SDS011;12556;55.748;13.194;2023-09-12T12:22:58;24.73;;;21.10;;
11771;SDS011;12556;55.748;13.194;2023-09-12T12:25:26;23.45;;;19.63;;
11771;SDS011;12556;55.748;13.194;2023-09-12T12:27:58;22.77;;;20.05;;
11771;SDS011;12556;55.748;13.194;2023-09-12T12:30:25;19.60;;;17.17;;
11771;SDS011;12556;55.748;13.194;2023-09-12T12:32:56;19.95;;;17.60;;
11771;SDS011;12556;55.748;13.194;2023-09-12T12:35:23;18.48;;;16.35;;
11771;SDS011;12556;55.748;13.194;2023-09-12T12:37:53;17.95;;;16.15;;
11771;SDS011;12556;55.748;13.194;2023-09-12T12:40:21;15.75;;;13.85;;
11771;SDS011;12556;55.748;13.194;2023-09-12T12:42:50;16.15;;;13.57;;
11771;SDS011;12556;55.748;13.194;2023-09-12T12:45:17;18.80;;;14.98;;
11771;SDS011;12556;55.748;13.194;2023-09-12T12:47:45;16.05;;;13.48;;
11771;SDS011;12556;55.748;13.194;2023-09-12T12:50:16;15.65;;;13.20;;
11771;SDS011;12556;55.748;13.194;2023-09-12T12:52:46;13.73;;;12.35;;
11771;SDS011;12556;55.748;13.194;2023-09-12T12:55:13;14.38;;;11.88;;
11771;SDS011;12556;55.748;13.194;2023-09-12T12:57:42;13.50;;;12.00;;
11771;SDS011;12556;55.748;13.194;2023-09-12T13:00:12;14.68;;;11.57;;
11771;SDS011;12556;55.748;13.194;2023-09-12T13:02:40;12.88;;;11.57;;
11771;SDS011;12556;55.748;13.194;2023-09-12T13:05:19;12.10;;;10.77;;
11771;SDS011;12556;55.748;13.194;2023-09-12T13:07:46;14.48;;;13.10;;
11771;SDS011;12556;55.748;13.194;2023-09-12T13:10:13;14.93;;;13.32;;
11771;SDS011;12556;55.748;13.194;2023-09-12T13:12:40;15.07;;;13.57;;
11771;SDS011;12556;55.748;13.194;2023-09-12T13:15:12;16.88;;;15.18;;
11771;SDS011;12556;55.748;13.194;2023-09-12T13:17:40;16.38;;;14.38;;
11771;SDS011;12556;55.748;13.194;2023-09-12T13:20:07;17.40;;;14.45;;
11771;SDS011;12556;55.748;13.194;2023-09-12T13:22:34;14.90;;;13.25;;
11771;SDS011;12556;55.748;13.194;2023-09-12T13:25:01;13.77;;;12.38;;
11771;SDS011;12556;55.748;13.194;2023-09-12T13:27:28;14.88;;;13.43;;
11771;SDS011;12556;55.748;13.194;2023-09-12T13:29:55;14.73;;;13.32;;
11771;SDS011;12556;55.748;13.194;2023-09-12T13:32:23;16.77;;;14.95;;
11771;SDS011;12556;55.748;13.194;2023-09-12T13:34:50;15.48;;;13.88;;
11771;SDS011;12556;55.748;13.194;2023-09-12T13:37:18;16.85;;;15.05;;
11771;SDS011;12556;55.748;13.194;2023-09-12T13:39:46;19.25;;;15.45;;
11771;SDS011;12556;55.748;13.194;2023-09-12T13:42:14;14.85;;;13.40;;
11771;SDS011;12556;55.748;13.194;2023-09-12T13:44:43;16.50;;;14.23;;
11771;SDS011;12556;55.748;13.194;2023-09-12T13:47:10;16.58;;;14.75;;
11771;SDS011;12556;55.748;13.194;2023-09-12T13:49:38;16.23;;;12.82;;
11771;SDS011;12556;55.748;13.194;2023-09-12T13:52:05;13.85;;;11.95;;
11771;SDS011;12556;55.748;13.194;2023-09-12T13:54:32;14.13;;;12.63;;
11771;SDS011;12556;55.748;13.194;2023-09-12T13:56:59;15.43;;;12.60;;
11771;SDS011;12556;55.748;13.194;2023-09-12T13:59:25;13.50;;;11.57;;
11771;SDS011;12556;55.748;13.194;2023-09-12T14:01:52;15.50;;;13.95;;
11771;SDS011;12556;55.748;13.194;2023-09-12T14:04:19;14.30;;;12.88;;
11771;SDS011;12556;55.748;13.194;2023-09-12T14:06:47;15.25;;;12.45;;
11771;SDS011;12556;55.748;13.194;2023-09-12T14:09:14;13.40;;;11.55;;
11771;SDS011;12556;55.748;13.194;2023-09-12T14:11:41;16.27;;;14.43;;
11771;SDS011;12556;55.748;13.194;2023-09-12T14:14:08;14.80;;;13.20;;
11771;SDS011;12556;55.748;13.194;2023-09-12T14:16:35;16.27;;;14.05;;
11771;SDS011;12556;55.748;13.194;2023-09-12T14:19:02;14.55;;;13.05;;